createdAt,value
2018-09-16T00:00:47.283Z,62.2
2018-09-16T00:01:37.593Z,62.2
2018-09-16T00:02:28.016Z,62.2
2018-09-16T00:03:17.773Z,62.1
2018-09-16T00:04:07.543Z,62.1
2018-09-16T00:04:57.618Z,62.1
2018-09-16T00:05:47.683Z,62.1
2018-09-16T00:06:37.468Z,62.1
2018-09-16T00:07:27.795Z,62.1
2018-09-16T00:08:17.876Z,62.1
2018-09-16T00:09:08.213Z,62.1
2018-09-16T00:09:58.282Z,62.1
2018-09-16T00:10:48.559Z,62.1
2018-09-16T00:11:37.573Z,62.1
2018-09-16T00:12:28.478Z,62.1
2018-09-16T00:13:18.532Z,62.1
2018-09-16T00:14:08.614Z,62.1
2018-09-16T00:14:58.618Z,62
2018-09-16T00:15:48.240Z,62
2018-09-16T00:16:37.900Z,62
2018-09-16T00:17:29.166Z,62
2018-09-16T00:18:19.155Z,62
2018-09-16T00:19:08.125Z,61.9
2018-09-16T00:19:59.310Z,61.9
2018-09-16T00:20:49.154Z,61.9
2018-09-16T00:21:38.900Z,61.9
2018-09-16T00:22:29.239Z,61.9
2018-09-16T00:23:18.872Z,61.9
2018-09-16T00:24:08.477Z,61.9
2018-09-16T00:24:59.682Z,61.9
2018-09-16T00:25:49.997Z,61.9
2018-09-16T00:26:38.996Z,61.9
2018-09-16T00:27:29.032Z,61.9
2018-09-16T00:28:19.987Z,61.9
2018-09-16T00:29:10.038Z,61.9
2018-09-16T00:29:59.490Z,61.9
2018-09-16T00:30:49.545Z,61.9
2018-09-16T00:31:39.886Z,61.8
2018-09-16T00:32:29.986Z,61.8
2018-09-16T00:33:19.484Z,61.8
2018-09-16T00:34:09.543Z,61.8
2018-09-16T00:34:59.924Z,61.8
2018-09-16T00:35:50.824Z,61.8
2018-09-16T00:36:40.561Z,61.8
2018-09-16T00:56:10.274Z,61.6
2018-09-16T00:56:59.881Z,61.6
2018-09-16T00:57:49.664Z,61.6
2018-09-16T00:58:39.959Z,61.6
2018-09-16T00:59:30.345Z,61.6
2018-09-16T01:00:20.401Z,61.6
2018-09-16T01:01:09.849Z,61.6
2018-09-16T01:02:00.230Z,61.6
2018-09-16T01:02:50.280Z,61.5
2018-09-16T01:03:39.472Z,61.5
2018-09-16T01:04:30.477Z,61.5
2018-09-16T01:05:20.759Z,61.5
2018-09-16T01:06:10.608Z,61.5
2018-09-16T01:07:00.555Z,61.5
2018-09-16T01:07:50.941Z,61.5
2018-09-16T01:08:40.744Z,61.4
2018-09-16T01:09:30.759Z,61.4
2018-09-16T01:10:20.554Z,61.4
2018-09-16T01:11:11.162Z,61.4
2018-09-16T01:12:00.396Z,61.4
2018-09-16T01:12:50.246Z,61.4
2018-09-16T01:13:40.850Z,61.4
2018-09-16T01:14:30.875Z,61.4
2018-09-16T01:15:20.666Z,61.4
2018-09-16T01:16:11.274Z,61.4
2018-09-16T01:17:01.926Z,61.4
2018-09-16T01:17:51.479Z,61.4
2018-09-16T01:18:41.551Z,61.4
2018-09-16T01:19:31.254Z,61.3
2018-09-16T01:20:21.301Z,61.3
2018-09-16T01:21:12.014Z,61.4
2018-09-16T01:22:01.509Z,61.3
2018-09-16T01:22:50.927Z,61.3
2018-09-16T01:23:41.550Z,61.3
2018-09-16T01:24:31.951Z,61.3
2018-09-16T01:25:21.758Z,61.3
2018-09-16T01:26:12.251Z,61.3
2018-09-16T01:27:02.438Z,61.3
2018-09-16T01:27:52.533Z,61.3
2018-09-16T01:28:41.744Z,61.3
2018-09-16T01:29:32.101Z,61.3
2018-09-16T01:30:22.395Z,61.3
2018-09-16T01:31:11.655Z,61.3
2018-09-16T01:32:02.585Z,61.3
2018-09-16T01:32:52.585Z,61.2
2018-09-16T01:33:42.065Z,61.2
2018-09-16T01:34:32.189Z,61.2
2018-09-16T01:35:22.763Z,61.2
2018-09-16T01:36:12.217Z,61.2
2018-09-16T01:37:03.189Z,61.2
2018-09-16T01:37:52.939Z,61.2
2018-09-16T01:38:43.320Z,61.2
2018-09-16T01:39:32.764Z,61.1
2018-09-16T01:40:22.820Z,61.1
2018-09-16T01:41:14.483Z,61.1
2018-09-16T01:42:03.552Z,61.1
2018-09-16T01:42:53.292Z,61.1
2018-09-16T01:43:43.104Z,61.1
2018-09-16T01:44:33.442Z,61.1
2018-09-16T01:45:23.507Z,61.1
2018-09-16T01:46:13.259Z,61.1
2018-09-16T01:47:04.344Z,61.1
2018-09-16T01:47:53.679Z,61.1
2018-09-16T01:48:43.229Z,61.1
2018-09-16T01:49:33.272Z,61.1
2018-09-16T01:50:23.611Z,61.1
2018-09-16T01:51:14.510Z,61
2018-09-16T01:52:04.406Z,61
2018-09-16T01:52:54.108Z,61
2018-09-16T01:53:43.579Z,61
2018-09-16T01:54:33.631Z,61
2018-09-16T01:55:24.279Z,61
2018-09-16T01:56:14.021Z,61
2018-09-16T01:57:04.331Z,61
2018-09-16T01:57:53.594Z,61
2018-09-16T01:58:44.867Z,60.9
2018-09-16T01:59:34.881Z,61
2018-09-16T02:00:24.645Z,60.9
2018-09-16T02:01:14.398Z,60.9
2018-09-16T02:02:05.055Z,60.9
2018-09-16T02:02:55.167Z,60.9
2018-09-16T02:03:45.216Z,60.9
2018-09-16T02:04:35.229Z,60.9
2018-09-16T02:05:24.433Z,60.9
2018-09-16T02:06:14.801Z,60.9
2018-09-16T02:07:04.586Z,60.9
2018-09-16T02:07:54.964Z,60.9
2018-09-16T02:08:45.290Z,60.9
2018-09-16T02:09:34.498Z,60.9
2018-09-16T02:10:24.538Z,60.8
2018-09-16T02:11:15.745Z,60.8
2018-09-16T02:12:05.780Z,60.8
2018-09-16T02:12:55.825Z,60.8
2018-09-16T02:13:45.083Z,60.8
2018-09-16T02:14:34.870Z,60.8
2018-09-16T02:15:25.178Z,60.8
2018-09-16T02:16:15.860Z,60.8
2018-09-16T02:17:06.231Z,60.8
2018-09-16T02:17:55.438Z,60.8
2018-09-16T02:18:44.875Z,60.8
2018-09-16T02:19:36.102Z,60.8
2018-09-16T02:20:25.340Z,60.8
2018-09-16T02:21:16.227Z,60.8
2018-09-16T02:22:06.633Z,60.8
2018-09-16T02:22:56.385Z,60.8
2018-09-16T02:23:46.723Z,60.7
2018-09-16T02:24:36.742Z,60.7
2018-09-16T02:25:26.254Z,60.7
2018-09-16T02:26:16.290Z,60.7
2018-09-16T02:27:06.493Z,60.7
2018-09-16T02:27:56.235Z,60.7
2018-09-16T02:28:46.529Z,60.7
2018-09-16T02:29:36.247Z,60.7
2018-09-16T02:30:26.631Z,60.6
2018-09-16T02:31:16.982Z,60.6
2018-09-16T02:32:07.578Z,60.6
2018-09-16T02:32:57.110Z,60.6
2018-09-16T02:33:47.205Z,60.6
2018-09-16T02:34:37.529Z,60.6
2018-09-16T02:35:27.301Z,60.6
2018-09-16T02:36:17.368Z,60.6
2018-09-16T02:37:07.729Z,60.6
2018-09-16T02:37:57.541Z,60.6
2018-09-16T02:38:47.273Z,60.6
2018-09-16T02:39:37.569Z,60.6
2018-09-16T02:40:27.706Z,60.6
2018-09-16T02:41:17.469Z,60.6
2018-09-16T02:42:07.527Z,60.6
2018-09-16T02:42:57.528Z,60.5
2018-09-16T02:43:47.946Z,60.5
2018-09-16T02:44:37.148Z,60.5
2018-09-16T02:45:27.521Z,60.5
2018-09-16T02:46:17.627Z,60.5
2018-09-16T02:47:07.683Z,60.4
2018-09-16T02:47:57.112Z,60.5
2018-09-16T02:48:48.339Z,60.5
2018-09-16T02:49:38.379Z,60.4
2018-09-16T02:50:28.476Z,60.4
2018-09-16T02:51:18.213Z,60.4
2018-09-16T02:52:08.003Z,60.4
2018-09-16T02:52:58.632Z,60.4
2018-09-16T02:53:48.421Z,60.4
2018-09-16T02:54:38.738Z,60.4
2018-09-16T02:55:28.825Z,60.4
2018-09-16T02:56:18.578Z,60.4
2018-09-16T02:57:09.256Z,60.4
2018-09-16T02:57:58.400Z,60.4
2018-09-16T02:58:49.287Z,60.4
2018-09-16T02:59:39.098Z,60.4
2018-09-16T03:00:29.210Z,60.4
2018-09-16T03:01:19.568Z,60.3
2018-09-16T03:02:09.062Z,60.3
2018-09-16T03:03:00.033Z,60.3
2018-09-16T03:03:49.502Z,60.3
2018-09-16T03:04:39.527Z,60.3
2018-09-16T03:05:29.842Z,60.3
2018-09-16T03:06:19.679Z,60.3
2018-09-16T03:07:09.770Z,60.3
2018-09-16T03:07:59.563Z,60.3
2018-09-16T03:08:49.257Z,60.3
2018-09-16T03:09:39.874Z,60.3
2018-09-16T03:10:29.994Z,60.3
2018-09-16T03:11:20.075Z,60.3
2018-09-16T03:12:09.517Z,60.3
2018-09-16T03:13:00.512Z,60.3
2018-09-16T03:13:50.047Z,60.2
2018-09-16T03:14:40.066Z,60.3
2018-09-16T03:15:30.062Z,60.2
2018-09-16T03:16:20.152Z,60.2
2018-09-16T03:17:10.458Z,60.2
2018-09-16T03:18:00.180Z,60.2
2018-09-16T03:18:50.218Z,60.2
2018-09-16T03:19:40.336Z,60.2
2018-09-16T03:20:30.966Z,60.1
2018-09-16T03:21:20.783Z,60.2
2018-09-16T03:22:10.564Z,60.1
2018-09-16T03:23:00.980Z,60.1
2018-09-16T03:23:50.971Z,60.1
2018-09-16T03:24:41.066Z,60.1
2018-09-16T03:25:31.991Z,60.1
2018-09-16T03:26:20.909Z,60.1
2018-09-16T03:27:10.929Z,60.1
2018-09-16T03:28:00.973Z,60.1
2018-09-16T03:28:51.046Z,60.1
2018-09-16T03:29:41.468Z,60.1
2018-09-16T03:30:31.893Z,60.1
2018-09-16T03:31:20.763Z,60.1
2018-09-16T03:32:11.634Z,60.1
2018-09-16T03:33:01.675Z,60.1
2018-09-16T03:33:51.128Z,60.1
2018-09-16T03:34:41.506Z,60
2018-09-16T03:35:32.081Z,60
2018-09-16T03:36:21.072Z,60
2018-09-16T03:37:12.002Z,60
2018-09-16T03:38:02.305Z,60
2018-09-16T03:38:51.518Z,60
2018-09-16T03:39:41.893Z,60
2018-09-16T03:40:32.713Z,60
2018-09-16T03:41:22.780Z,59.9
2018-09-16T03:42:12.102Z,59.9
2018-09-16T03:43:02.160Z,59.9
2018-09-16T03:43:52.545Z,59.9
2018-09-16T03:44:42.560Z,59.9
2018-09-16T03:45:32.949Z,59.9
2018-09-16T03:46:22.485Z,59.9
2018-09-16T03:47:12.472Z,59.9
2018-09-16T03:48:01.945Z,59.9
2018-09-16T03:48:52.911Z,59.9
2018-09-16T03:49:42.707Z,59.9
2018-09-16T03:50:33.275Z,59.9
2018-09-16T03:51:23.352Z,59.9
2018-09-16T03:52:12.866Z,59.9
2018-09-16T03:53:03.475Z,59.8
2018-09-16T03:53:52.966Z,59.8
2018-09-16T03:54:43.054Z,59.8
2018-09-16T03:55:34.007Z,59.8
2018-09-16T03:56:23.564Z,59.8
2018-09-16T03:57:13.207Z,59.8
2018-09-16T03:58:03.283Z,59.8
2018-09-16T03:58:53.896Z,59.8
2018-09-16T03:59:43.077Z,59.8
2018-09-16T04:00:33.774Z,59.8
2018-09-16T04:01:24.100Z,59.8
2018-09-16T04:02:14.184Z,59.8
2018-09-16T04:03:03.961Z,59.8
2018-09-16T04:03:54.027Z,59.8
2018-09-16T04:04:43.778Z,59.8
2018-09-16T04:05:34.376Z,59.8
2018-09-16T04:06:23.906Z,59.8
2018-09-16T04:07:14.009Z,59.7
2018-09-16T04:08:04.664Z,59.7
2018-09-16T04:08:53.807Z,59.7
2018-09-16T04:09:44.188Z,59.7
2018-09-16T04:10:34.858Z,59.7
2018-09-16T04:11:24.578Z,59.7
2018-09-16T04:12:14.919Z,59.7
2018-09-16T04:13:04.384Z,59.7
2018-09-16T04:13:55.674Z,59.6
2018-09-16T04:14:44.843Z,59.6
2018-09-16T04:15:34.891Z,59.6
2018-09-16T04:16:24.958Z,59.6
2018-09-16T04:17:15.070Z,59.6
2018-09-16T04:18:04.806Z,59.6
2018-09-16T04:18:55.173Z,59.6
2018-09-16T04:19:45.191Z,59.6
2018-09-16T04:20:34.677Z,59.6
2018-09-16T04:21:25.106Z,59.6
2018-09-16T04:22:15.427Z,59.6
2018-09-16T04:23:05.185Z,59.6
2018-09-16T04:23:55.530Z,59.6
2018-09-16T04:24:45.876Z,59.6
2018-09-16T04:25:35.338Z,59.6
2018-09-16T04:26:25.940Z,59.6
2018-09-16T04:27:15.914Z,59.6
2018-09-16T04:28:06.196Z,59.5
2018-09-16T04:28:56.204Z,59.5
2018-09-16T04:29:46.053Z,59.5
2018-09-16T04:30:36.135Z,59.5
2018-09-16T04:31:25.963Z,59.5
2018-09-16T04:32:16.235Z,59.5
2018-09-16T04:33:06.234Z,59.5
2018-09-16T04:33:55.728Z,59.5
2018-09-16T04:34:46.370Z,59.4
2018-09-16T04:35:36.417Z,59.4
2018-09-16T04:36:26.277Z,59.4
2018-09-16T04:37:16.279Z,59.4
2018-09-16T04:38:06.877Z,59.4
2018-09-16T04:38:56.472Z,59.4
2018-09-16T04:39:46.734Z,59.4
2018-09-16T04:40:36.523Z,59.4
2018-09-16T04:41:26.841Z,59.4
2018-09-16T04:42:16.319Z,59.4
2018-09-16T04:43:06.654Z,59.4
2018-09-16T04:43:57.307Z,59.4
2018-09-16T04:44:47.040Z,59.4
2018-09-16T04:45:36.614Z,59.4
2018-09-16T04:46:26.913Z,59.3
2018-09-16T04:47:17.066Z,59.3
2018-09-16T04:48:07.343Z,59.3
2018-09-16T04:48:57.416Z,59.3
2018-09-16T04:49:47.929Z,59.3
2018-09-16T04:50:37.833Z,59.3
2018-09-16T04:51:27.885Z,59.3
2018-09-16T04:52:17.140Z,59.3
2018-09-16T04:53:07.818Z,59.3
2018-09-16T04:53:57.770Z,59.3
2018-09-16T04:54:48.116Z,59.3
2018-09-16T04:55:37.925Z,59.3
2018-09-16T04:56:27.703Z,59.2
2018-09-16T04:57:17.807Z,59.2
2018-09-16T04:58:07.571Z,59.2
2018-09-16T04:58:57.607Z,59.2
2018-09-16T04:59:48.027Z,59.2
2018-09-16T05:00:38.360Z,59.2
2018-09-16T05:01:28.533Z,59.2
2018-09-16T05:02:18.423Z,59.2
2018-09-16T05:03:07.942Z,59.1
2018-09-16T05:03:58.827Z,59.1
2018-09-16T05:04:48.335Z,59.1
2018-09-16T05:05:38.681Z,59.1
2018-09-16T05:06:28.724Z,59.1
2018-09-16T05:07:19.067Z,59.1
2018-09-16T05:25:02.232Z,58.9
2018-09-16T05:25:52.645Z,58.9
2018-09-16T05:26:42.014Z,58.9
2018-09-16T05:27:32.625Z,58.9
2018-09-16T05:28:22.399Z,58.9
2018-09-16T05:29:12.486Z,58.9
2018-09-16T05:30:02.933Z,58.9
2018-09-16T05:30:52.036Z,58.9
2018-09-16T05:31:41.866Z,58.9
2018-09-16T05:32:33.241Z,58.9
2018-09-16T05:33:22.470Z,58.9
2018-09-16T05:34:12.823Z,58.9
2018-09-16T05:35:02.627Z,58.9
2018-09-16T05:35:52.997Z,58.9
2018-09-16T05:36:42.453Z,58.8
2018-09-16T05:37:32.561Z,58.8
2018-09-16T05:38:22.265Z,58.8
2018-09-16T05:39:13.207Z,58.8
2018-09-16T05:40:02.680Z,58.8
2018-09-16T05:40:53.628Z,58.8
2018-09-16T05:41:43.351Z,58.8
2018-09-16T05:42:32.893Z,58.8
2018-09-16T05:43:23.616Z,58.8
2018-09-16T05:44:12.747Z,58.8
2018-09-16T05:45:03.925Z,58.8
2018-09-16T05:45:52.858Z,58.8
2018-09-16T05:46:43.736Z,58.8
2018-09-16T05:47:33.247Z,58.8
2018-09-16T05:48:24.180Z,58.8
2018-09-16T05:49:13.675Z,58.8
2018-09-16T05:50:04.066Z,58.8
2018-09-16T05:50:54.660Z,58.8
2018-09-16T05:51:44.743Z,58.7
2018-09-16T05:52:34.286Z,58.7
2018-09-16T05:53:26.210Z,58.7
2018-09-16T05:54:14.320Z,58.7
2018-09-16T05:55:04.105Z,58.6
2018-09-16T05:55:54.747Z,58.6
2018-09-16T05:56:44.215Z,58.6
2018-09-16T05:57:34.647Z,58.6
2018-09-16T05:58:24.661Z,58.6
2018-09-16T05:59:15.117Z,58.6
2018-09-16T06:00:05.070Z,58.6
2018-09-16T06:00:55.386Z,58.6
2018-09-16T06:09:15.552Z,58.5
2018-09-16T06:10:05.869Z,58.5
2018-09-16T06:10:56.578Z,58.5
2018-09-16T06:11:45.626Z,58.5
2018-09-16T06:12:35.441Z,58.5
2018-09-16T06:13:24.923Z,58.5
2018-09-16T06:14:15.976Z,58.4
2018-09-16T06:15:06.004Z,58.5
2018-09-16T06:15:56.309Z,58.4
2018-09-16T06:16:46.101Z,58.4
2018-09-16T06:17:36.079Z,58.4
2018-09-16T06:18:25.908Z,58.4
2018-09-16T06:19:16.616Z,58.4
2018-09-16T06:20:06.048Z,58.4
2018-09-16T06:20:55.488Z,58.4
2018-09-16T06:21:46.701Z,58.4
2018-09-16T06:22:37.127Z,58.4
2018-09-16T06:23:26.630Z,58.4
2018-09-16T06:24:16.338Z,58.4
2018-09-16T06:25:06.445Z,58.4
2018-09-16T06:25:57.003Z,58.4
2018-09-16T06:26:46.308Z,58.4
2018-09-16T06:27:35.765Z,58.4
2018-09-16T06:28:26.149Z,58.3
2018-09-16T06:29:16.203Z,58.3
2018-09-16T06:30:06.287Z,58.3
2018-09-16T06:30:56.920Z,58.3
2018-09-16T06:31:46.933Z,58.3
2018-09-16T06:32:36.747Z,58.3
2018-09-16T06:33:27.269Z,58.3
2018-09-16T06:34:17.170Z,58.3
2018-09-16T06:35:06.937Z,58.3
2018-09-16T06:35:57.292Z,58.3
2018-09-16T06:36:47.049Z,58.3
2018-09-16T06:37:37.126Z,58.3
2018-09-16T06:38:28.049Z,58.3
2018-09-16T06:39:17.604Z,58.3
2018-09-16T06:40:07.322Z,58.3
2018-09-16T06:40:57.667Z,58.3
2018-09-16T06:41:48.232Z,58.3
2018-09-16T06:42:37.502Z,58.2
2018-09-16T06:43:27.257Z,58.2
2018-09-16T06:44:17.637Z,58.2
2018-09-16T06:45:07.977Z,58.2
2018-09-16T06:45:57.466Z,58.2
2018-09-16T06:46:47.522Z,58.2
2018-09-16T06:47:37.878Z,58.2
2018-09-16T06:48:28.244Z,58.2
2018-09-16T06:49:18.497Z,58.2
2018-09-16T06:50:08.366Z,58.2
2018-09-16T06:50:59.825Z,58.1
2018-09-16T06:51:48.499Z,58.1
2018-09-16T06:52:37.744Z,58.1
2018-09-16T06:53:28.164Z,58.1
2018-09-16T06:54:18.345Z,58.1
2018-09-16T06:55:07.756Z,58.1
2018-09-16T06:55:58.039Z,58.1
2018-09-16T06:56:47.807Z,58.1
2018-09-16T06:57:38.944Z,58.1
2018-09-16T06:58:28.714Z,58.1
2018-09-16T06:59:18.468Z,58.1
2018-09-16T07:00:09.347Z,58.1
2018-09-16T07:00:59.756Z,58.1
2018-09-16T07:01:48.458Z,58.1
2018-09-16T07:02:39.073Z,58.1
2018-09-16T07:03:29.396Z,58.1
2018-09-16T07:04:19.398Z,58.1
2018-09-16T07:05:08.945Z,58
2018-09-16T07:05:58.497Z,58
2018-09-16T07:06:49.437Z,58
2018-09-16T07:07:39.573Z,58
2018-09-16T07:08:31.098Z,58
2018-09-16T07:09:19.561Z,58
2018-09-16T07:10:10.383Z,58
2018-09-16T07:11:00.436Z,58
2018-09-16T07:11:50.262Z,58
2018-09-16T07:12:39.847Z,57.9
2018-09-16T07:13:30.297Z,57.9
2018-09-16T07:14:21.149Z,58
2018-09-16T07:15:10.307Z,57.9
2018-09-16T07:15:59.766Z,57.9
2018-09-16T07:16:50.877Z,57.9
2018-09-16T07:17:40.972Z,57.9
2018-09-16T07:18:31.300Z,57.9
2018-09-16T07:19:20.289Z,57.9
2018-09-16T07:20:11.578Z,57.9
2018-09-16T07:21:00.020Z,57.9
2018-09-16T07:21:50.766Z,57.9
2018-09-16T07:22:40.486Z,57.9
2018-09-16T07:23:31.255Z,57.9
2018-09-16T07:24:20.622Z,57.9
2018-09-16T07:25:10.647Z,57.9
2018-09-16T07:26:00.719Z,57.9
2018-09-16T07:26:51.482Z,57.8
2018-09-16T07:27:41.193Z,57.9
2018-09-16T07:28:30.729Z,57.9
2018-09-16T07:29:21.292Z,57.8
2018-09-16T07:30:11.462Z,57.8
2018-09-16T07:31:01.656Z,57.8
2018-09-16T07:31:51.196Z,57.8
2018-09-16T07:32:41.139Z,57.8
2018-09-16T07:33:31.328Z,57.8
2018-09-16T07:34:21.883Z,57.8
2018-09-16T07:42:41.561Z,57.7
2018-09-16T07:43:32.041Z,57.7
2018-09-16T07:44:21.976Z,57.7
2018-09-16T07:45:13.329Z,57.7
2018-09-16T07:46:02.281Z,57.7
2018-09-16T07:46:52.858Z,57.7
2018-09-16T07:47:42.694Z,57.7
2018-09-16T07:48:32.478Z,57.7
2018-09-16T07:49:23.359Z,57.7
2018-09-16T07:50:12.628Z,57.6
2018-09-16T07:51:02.678Z,57.6
2018-09-16T07:51:53.555Z,57.6
2018-09-16T07:52:42.073Z,57.6
2018-09-16T07:53:33.113Z,57.6
2018-09-16T07:54:22.497Z,57.6
2018-09-16T07:55:11.980Z,57.6
2018-09-16T07:56:03.020Z,57.6
2018-09-16T07:56:53.106Z,57.6
2018-09-16T07:57:43.656Z,57.6
2018-09-16T07:58:33.240Z,57.6
2018-09-16T07:59:22.998Z,57.6
2018-09-16T08:00:13.035Z,57.6
2018-09-16T08:01:03.272Z,57.6
2018-09-16T08:01:53.212Z,57.6
2018-09-16T08:02:43.298Z,57.6
2018-09-16T08:03:33.600Z,57.6
2018-09-16T08:04:23.342Z,57.6
2018-09-16T08:05:13.730Z,57.6
2018-09-16T08:06:04.438Z,57.5
2018-09-16T08:06:53.879Z,57.5
2018-09-16T08:07:43.388Z,57.5
2018-09-16T08:08:34.015Z,57.5
2018-09-16T08:09:24.119Z,57.5
2018-09-16T08:10:13.824Z,57.5
2018-09-16T08:11:04.182Z,57.5
2018-09-16T08:11:54.052Z,57.4
2018-09-16T08:12:44.377Z,57.4
2018-09-16T08:13:34.944Z,57.4
2018-09-16T08:14:23.935Z,57.4
2018-09-16T08:15:14.614Z,57.4
2018-09-16T08:16:04.923Z,57.4
2018-09-16T08:16:54.918Z,57.4
2018-09-16T08:17:45.512Z,57.4
2018-09-16T08:18:34.589Z,57.4
2018-09-16T08:19:24.869Z,57.4
2018-09-16T08:20:14.871Z,57.4
2018-09-16T08:21:05.958Z,57.4
2018-09-16T08:21:54.408Z,57.4
2018-09-16T08:22:45.965Z,57.4
2018-09-16T08:23:36.831Z,57.4
2018-09-16T08:24:24.922Z,57.4
2018-09-16T08:25:14.697Z,57.4
2018-09-16T08:26:05.333Z,57.4
2018-09-16T08:26:55.879Z,57.4
2018-09-16T08:27:45.938Z,57.3
2018-09-16T08:28:37.571Z,57.3
2018-09-16T08:29:25.681Z,57.3
2018-09-16T08:30:15.996Z,57.3
2018-09-16T08:31:05.983Z,57.3
2018-09-16T08:31:55.401Z,57.3
2018-09-16T08:32:46.117Z,57.3
2018-09-16T08:33:36.156Z,57.3
2018-09-16T08:34:25.941Z,57.3
2018-09-16T08:35:16.843Z,57.3
2018-09-16T08:36:06.071Z,57.3
2018-09-16T08:36:56.913Z,57.3
2018-09-16T08:37:46.477Z,57.3
2018-09-16T08:38:36.255Z,57.3
2018-09-16T08:39:26.343Z,57.3
2018-09-16T08:40:16.736Z,57.3
2018-09-16T08:41:06.163Z,57.3
2018-09-16T08:41:56.752Z,57.3
2018-09-16T08:42:46.592Z,57.3
2018-09-16T08:43:36.626Z,57.2
2018-09-16T08:44:26.425Z,57.2
2018-09-16T08:45:17.295Z,57.2
2018-09-16T08:46:06.848Z,57.2
2018-09-16T08:46:56.682Z,57.2
2018-09-16T08:47:46.405Z,57.2
2018-09-16T08:48:37.512Z,57.2
2018-09-16T08:49:26.784Z,57.1
2018-09-16T08:50:16.862Z,57.1
2018-09-16T08:51:06.904Z,57.1
2018-09-16T08:51:57.319Z,57.1
2018-09-16T08:52:46.761Z,57.1
2018-09-16T08:53:37.384Z,57.1
2018-09-16T08:54:26.895Z,57.1
2018-09-16T08:55:18.055Z,57.1
2018-09-16T08:56:07.867Z,57.1
2018-09-16T08:56:57.628Z,57.1
2018-09-16T08:57:47.509Z,57.1
2018-09-16T08:58:38.189Z,57.1
2018-09-16T08:59:27.572Z,57.1
2018-09-16T09:00:17.313Z,57.1
2018-09-16T09:01:08.217Z,57.1
2018-09-16T09:01:58.070Z,57.1
2018-09-16T09:02:48.374Z,57.1
2018-09-16T09:03:38.449Z,57.1
2018-09-16T09:04:29.358Z,57.1
2018-09-16T09:05:18.588Z,57.1
2018-09-16T09:06:08.036Z,57.1
2018-09-16T09:06:58.435Z,57.1
2018-09-16T09:07:48.274Z,57
2018-09-16T09:08:37.985Z,57
2018-09-16T09:09:28.358Z,57
2018-09-16T09:10:18.938Z,57
2018-09-16T09:11:09.481Z,57
2018-09-16T09:11:59.799Z,57
2018-09-16T09:12:48.105Z,56.9
2018-09-16T09:13:39.188Z,57
2018-09-16T09:14:30.841Z,57
2018-09-16T09:15:17.975Z,56.9
2018-09-16T09:16:09.171Z,56.9
2018-09-16T09:16:59.145Z,56.9
2018-09-16T09:17:49.235Z,56.9
2018-09-16T09:18:39.454Z,56.9
2018-09-16T09:19:29.814Z,56.9
2018-09-16T09:20:19.203Z,56.9
2018-09-16T09:21:08.925Z,56.9
2018-09-16T09:22:00.080Z,56.9
2018-09-16T09:22:49.605Z,56.9
2018-09-16T09:39:31.078Z,56.8
2018-09-16T09:40:20.051Z,56.8
2018-09-16T09:41:10.138Z,56.8
2018-09-16T09:42:00.447Z,56.8
2018-09-16T09:42:51.525Z,56.8
2018-09-16T09:43:41.167Z,56.8
2018-09-16T09:44:31.264Z,56.7
2018-09-16T09:45:20.451Z,56.7
2018-09-16T09:46:11.055Z,56.7
2018-09-16T09:47:01.125Z,56.7
2018-09-16T09:47:50.903Z,56.7
2018-09-16T09:48:41.322Z,56.8
2018-09-16T09:49:31.312Z,56.8
2018-09-16T09:50:20.937Z,56.9
2018-09-16T09:51:11.662Z,56.9
2018-09-16T09:52:00.716Z,56.9
2018-09-16T09:52:51.290Z,57
2018-09-16T09:53:41.147Z,57.1
2018-09-16T09:54:31.676Z,57.1
2018-09-16T09:55:21.477Z,57.2
2018-09-16T09:56:11.542Z,57.3
2018-09-16T09:57:01.480Z,57.3
2018-09-16T09:57:52.394Z,57.3
2018-09-16T09:58:42.672Z,57.3
2018-09-16T09:59:33.134Z,57.3
2018-09-16T10:00:22.755Z,57.3
2018-09-16T10:01:12.496Z,57.4
2018-09-16T10:02:01.694Z,57.4
2018-09-16T10:02:52.050Z,57.5
2018-09-16T10:03:42.083Z,57.6
2018-09-16T10:04:31.963Z,57.6
2018-09-16T10:05:23.346Z,57.7
2018-09-16T10:07:02.616Z,57.9
2018-09-16T10:07:52.978Z,57.9
2018-09-16T10:08:42.771Z,58
2018-09-16T10:09:32.541Z,58
2018-09-16T10:10:22.593Z,58.2
2018-09-16T10:11:12.954Z,58.3
2018-09-16T10:12:03.033Z,58.3
2018-09-16T10:12:52.785Z,58.3
2018-09-16T10:13:43.708Z,58.4
2018-09-16T10:14:34.559Z,58.5
2018-09-16T10:15:23.061Z,58.5
2018-09-16T10:16:13.393Z,58.6
2018-09-16T10:17:03.695Z,58.7
2018-09-16T10:17:53.168Z,58.8
2018-09-16T10:18:43.533Z,58.9
2018-09-16T10:19:33.867Z,58.9
2018-09-16T10:20:23.684Z,59.1
2018-09-16T10:21:13.423Z,59.1
2018-09-16T10:22:03.777Z,59.3
2018-09-16T10:22:53.828Z,59.3
2018-09-16T10:23:43.954Z,59.4
2018-09-16T10:24:34.185Z,59.5
2018-09-16T10:25:23.754Z,59.6
2018-09-16T10:26:14.453Z,59.7
2018-09-16T10:27:03.887Z,59.7
2018-09-16T10:27:54.480Z,59.8
2018-09-16T10:28:43.993Z,59.8
2018-09-16T10:29:34.336Z,59.8
2018-09-16T10:30:24.681Z,59.9
2018-09-16T10:31:14.482Z,60
2018-09-16T10:32:04.273Z,60.1
2018-09-16T10:32:54.566Z,60.2
2018-09-16T10:33:44.371Z,60.3
2018-09-16T10:34:34.723Z,60.3
2018-09-16T10:35:25.089Z,60.3
2018-09-16T10:36:14.804Z,60.4
2018-09-16T10:37:05.288Z,60.5
2018-09-16T10:37:54.696Z,60.6
2018-09-16T10:38:44.949Z,60.8
2018-09-16T10:39:34.821Z,60.8
2018-09-16T10:40:25.569Z,60.9
2018-09-16T10:41:16.240Z,60.9
2018-09-16T10:42:05.945Z,61.1
2018-09-16T10:42:56.150Z,61.2
2018-09-16T10:43:45.683Z,61.3
2018-09-16T10:44:35.278Z,61.3
2018-09-16T10:45:25.537Z,61.4
2018-09-16T10:46:15.862Z,61.5
2018-09-16T10:47:05.975Z,61.5
2018-09-16T10:47:56.327Z,61.6
2018-09-16T10:48:45.278Z,61.6
2018-09-16T10:49:35.616Z,61.6
2018-09-16T10:50:25.988Z,61.6
2018-09-16T10:51:16.078Z,61.6
2018-09-16T10:52:06.617Z,61.6
2018-09-16T10:52:56.713Z,61.6
2018-09-16T10:53:46.477Z,61.7
2018-09-16T10:54:36.251Z,61.6
2018-09-16T10:55:26.581Z,61.6
2018-09-16T10:56:16.400Z,61.6
2018-09-16T10:57:06.488Z,61.7
2018-09-16T10:57:56.542Z,61.7
2018-09-16T10:58:46.367Z,61.6
2018-09-16T10:59:36.650Z,61.6
2018-09-16T11:00:26.420Z,61.6
2018-09-16T11:01:17.051Z,61.6
2018-09-16T11:02:06.852Z,61.6
2018-09-16T11:02:56.570Z,61.6
2018-09-16T11:03:47.232Z,61.6
2018-09-16T11:04:36.920Z,61.6
2018-09-16T11:05:27.195Z,61.6
2018-09-16T11:06:17.237Z,61.6
2018-09-16T11:07:07.010Z,61.6
2018-09-16T11:07:57.927Z,61.6
2018-09-16T11:08:47.627Z,61.6
2018-09-16T11:09:37.135Z,61.6
2018-09-16T11:10:27.251Z,61.6
2018-09-16T11:11:17.317Z,61.6
2018-09-16T11:12:07.899Z,61.6
2018-09-16T11:12:58.222Z,61.6
2018-09-16T11:13:47.453Z,61.6
2018-09-16T11:14:37.278Z,61.6
2018-09-16T11:15:27.859Z,61.6
2018-09-16T11:16:17.921Z,61.6
2018-09-16T11:17:07.971Z,61.6
2018-09-16T11:17:58.315Z,61.6
2018-09-16T11:18:48.339Z,61.6
2018-09-16T11:19:38.161Z,61.6
2018-09-16T11:20:27.954Z,61.6
2018-09-16T11:21:18.016Z,61.6
2018-09-16T11:22:08.894Z,61.6
2018-09-16T11:22:58.643Z,61.6
2018-09-16T11:23:49.080Z,61.6
2018-09-16T11:24:38.269Z,61.6
2018-09-16T11:25:28.126Z,61.6
2018-09-16T11:26:18.165Z,61.6
2018-09-16T11:27:08.840Z,61.6
2018-09-16T11:27:58.530Z,61.6
2018-09-16T11:28:48.520Z,61.6
2018-09-16T11:29:38.684Z,61.6
2018-09-16T11:30:28.730Z,61.6
2018-09-16T11:31:19.064Z,61.6
2018-09-16T11:32:08.609Z,61.5
2018-09-16T11:32:59.131Z,61.6
2018-09-16T11:33:49.335Z,61.5
2018-09-16T11:34:39.279Z,61.5
2018-09-16T11:35:29.574Z,61.5
2018-09-16T11:36:19.705Z,61.5
2018-09-16T11:37:09.771Z,61.5
2018-09-16T11:37:58.989Z,61.5
2018-09-16T11:38:50.389Z,61.5
2018-09-16T11:39:39.527Z,61.5
2018-09-16T11:40:28.967Z,61.5
2018-09-16T11:41:19.824Z,61.5
2018-09-16T11:42:10.172Z,61.5
2018-09-16T11:42:59.943Z,61.4
2018-09-16T11:43:50.294Z,61.4
2018-09-16T11:44:40.003Z,61.4
2018-09-16T11:45:30.427Z,61.4
2018-09-16T11:46:20.217Z,61.4
2018-09-16T11:47:10.301Z,61.4
2018-09-16T11:48:00.075Z,61.4
2018-09-16T11:48:50.913Z,61.4
2018-09-16T11:49:40.813Z,61.4
2018-09-16T11:50:29.680Z,61.4
2018-09-16T11:51:20.005Z,61.4
2018-09-16T11:52:09.857Z,61.4
2018-09-16T11:53:00.699Z,61.4
2018-09-16T11:53:51.027Z,61.4
2018-09-16T11:54:40.888Z,61.4
2018-09-16T11:55:30.904Z,61.4
2018-09-16T11:56:20.670Z,61.4
2018-09-16T11:57:10.745Z,61.4
2018-09-16T11:58:01.065Z,61.4
2018-09-16T11:58:51.201Z,61.4
2018-09-16T11:59:41.520Z,61.4
2018-09-16T12:00:31.279Z,61.3
2018-09-16T12:01:21.329Z,61.3
2018-09-16T12:02:12.515Z,61.3
2018-09-16T12:03:01.197Z,61.4
2018-09-16T12:03:51.569Z,61.3
2018-09-16T12:04:42.625Z,61.3
2018-09-16T12:05:31.693Z,61.3
2018-09-16T12:06:21.745Z,61.3
2018-09-16T12:07:11.764Z,61.3
2018-09-16T12:08:01.589Z,61.3
2018-09-16T12:08:51.453Z,61.3
2018-09-16T12:09:42.272Z,61.3
2018-09-16T12:10:32.037Z,61.3
2018-09-16T12:11:22.075Z,61.3
2018-09-16T12:12:12.505Z,61.3
2018-09-16T12:13:01.945Z,61.3
2018-09-16T12:13:52.272Z,61.3
2018-09-16T12:14:42.902Z,61.3
2018-09-16T12:15:32.717Z,61.3
2018-09-16T12:16:22.562Z,61.3